createdAt,value
2018-07-26T00:00:12.787Z,24.79
2018-07-26T00:01:12.822Z,24.77
2018-07-26T00:02:12.849Z,24.74
2018-07-26T00:03:12.874Z,24.77
2018-07-26T00:04:12.901Z,24.66
2018-07-26T00:05:12.928Z,24.63
2018-07-26T00:06:12.960Z,24.61
2018-07-26T00:07:12.984Z,24.59
2018-07-26T00:08:13.016Z,24.66
2018-07-26T00:09:13.046Z,24.67
2018-07-26T00:10:13.066Z,24.67
2018-07-26T00:11:13.094Z,24.79
2018-07-26T00:12:13.128Z,24.74
2018-07-26T00:13:13.160Z,24.68
2018-07-26T00:14:13.184Z,24.68
2018-07-26T00:15:13.210Z,24.74
2018-07-26T00:16:13.240Z,24.67
2018-07-26T00:17:13.266Z,24.67
2018-07-26T00:18:13.301Z,24.61
2018-07-26T00:19:13.317Z,24.66
2018-07-26T00:20:13.347Z,24.66
2018-07-26T00:21:13.378Z,24.63
2018-07-26T00:22:13.409Z,24.63
2018-07-26T00:23:13.435Z,24.64
2018-07-26T00:24:13.462Z,24.61
2018-07-26T00:25:13.484Z,24.63
2018-07-26T00:26:13.512Z,24.55
2018-07-26T00:27:13.551Z,24.53
2018-07-26T00:28:13.571Z,24.63
2018-07-26T00:29:13.600Z,24.60
2018-07-26T00:30:13.621Z,24.66
2018-07-26T00:31:13.651Z,24.59
2018-07-26T00:32:13.677Z,24.56
2018-07-26T00:33:13.708Z,24.59
2018-07-26T00:34:13.736Z,24.53
2018-07-26T00:35:13.769Z,24.59
2018-07-26T00:36:13.794Z,24.44
2018-07-26T00:37:13.818Z,24.48
2018-07-26T00:38:13.845Z,24.44
2018-07-26T00:39:13.871Z,24.34
2018-07-26T00:40:13.903Z,24.31
2018-07-26T00:41:14.016Z,24.34
2018-07-26T00:42:13.954Z,24.33
2018-07-26T00:43:13.989Z,24.31
2018-07-26T00:44:14.015Z,24.37
2018-07-26T00:45:14.040Z,24.45
2018-07-26T00:46:14.069Z,24.36
2018-07-26T00:47:14.096Z,24.41
2018-07-26T00:48:14.122Z,24.37
2018-07-26T00:49:14.158Z,24.45
2018-07-26T00:50:14.180Z,24.44
2018-07-26T00:51:14.206Z,24.48
2018-07-26T00:52:14.232Z,24.46
2018-07-26T00:53:14.264Z,24.46
2018-07-26T00:54:14.290Z,24.48
2018-07-26T00:55:14.323Z,24.49
2018-07-26T00:56:14.346Z,24.42
2018-07-26T00:57:14.374Z,24.33
2018-07-26T00:58:14.402Z,24.34
2018-07-26T00:59:14.428Z,24.33
2018-07-26T01:00:14.458Z,24.31
2018-07-26T01:01:14.482Z,24.29
2018-07-26T01:02:14.512Z,24.29
2018-07-26T01:03:14.536Z,24.33
2018-07-26T01:04:14.569Z,24.27
2018-07-26T01:05:14.598Z,24.31
2018-07-26T01:06:14.620Z,24.24
2018-07-26T01:07:14.650Z,24.30
2018-07-26T01:08:14.677Z,24.29
2018-07-26T01:09:14.706Z,24.24
2018-07-26T01:10:14.732Z,24.21
2018-07-26T01:11:14.757Z,24.16
2018-07-26T01:12:14.788Z,24.27
2018-07-26T01:13:14.825Z,24.26
2018-07-26T01:14:14.840Z,24.23
2018-07-26T01:15:14.868Z,24.19
2018-07-26T01:16:14.898Z,24.09
2018-07-26T01:17:14.930Z,24.09
2018-07-26T01:18:14.956Z,24.11
2018-07-26T01:19:14.986Z,24.04
2018-07-26T01:20:15.007Z,24.05
2018-07-26T01:21:15.040Z,24.19
2018-07-26T01:22:15.065Z,24.11
2018-07-26T01:23:15.090Z,24.11
2018-07-26T01:24:15.114Z,24.06
2018-07-26T01:25:15.146Z,24.09
2018-07-26T01:26:15.174Z,24.12
2018-07-26T01:27:15.195Z,24.19
2018-07-26T01:28:15.224Z,24.24
2018-07-26T01:29:15.257Z,24.26
2018-07-26T01:30:15.286Z,24.26
2018-07-26T01:31:15.310Z,24.29
2018-07-26T01:32:15.336Z,24.27
2018-07-26T01:33:15.364Z,24.29
2018-07-26T01:34:15.395Z,24.33
2018-07-26T01:35:15.422Z,24.30
2018-07-26T01:36:15.450Z,24.27
2018-07-26T01:37:15.473Z,24.24
2018-07-26T01:38:15.500Z,24.16
2018-07-26T01:39:15.529Z,24.15
2018-07-26T01:40:15.562Z,24.14
2018-07-26T01:41:15.584Z,24.09
2018-07-26T01:42:15.616Z,24.06
2018-07-26T01:43:15.640Z,23.99
2018-07-26T01:44:15.665Z,23.93
2018-07-26T01:45:15.701Z,23.97
2018-07-26T01:46:15.718Z,23.87
2018-07-26T01:47:15.748Z,23.89
2018-07-26T01:48:15.776Z,23.92
2018-07-26T01:49:15.804Z,23.92
2018-07-26T01:50:15.838Z,23.78
2018-07-26T01:51:15.859Z,23.78
2018-07-26T01:52:15.890Z,23.72
2018-07-26T01:53:15.912Z,23.75
2018-07-26T01:54:15.946Z,23.72
2018-07-26T01:55:15.974Z,23.72
2018-07-26T01:56:15.998Z,23.72
2018-07-26T01:57:16.030Z,23.64
2018-07-26T01:58:16.058Z,23.74
2018-07-26T01:59:16.085Z,23.60
2018-07-26T02:00:16.106Z,23.78
2018-07-26T02:01:16.137Z,23.84
2018-07-26T02:02:16.166Z,23.86
2018-07-26T02:03:16.186Z,23.79
2018-07-26T02:04:16.218Z,23.81
2018-07-26T02:05:16.245Z,23.86
2018-07-26T02:06:16.270Z,23.81
2018-07-26T02:07:16.296Z,23.84
2018-07-26T02:08:16.326Z,23.92
2018-07-26T02:09:16.360Z,23.92
2018-07-26T02:10:16.380Z,23.96
2018-07-26T02:11:16.409Z,23.92
2018-07-26T02:12:16.436Z,23.94
2018-07-26T02:13:16.466Z,23.78
2018-07-26T02:14:16.494Z,23.75
2018-07-26T02:15:16.516Z,23.84
2018-07-26T02:16:16.544Z,23.75
2018-07-26T02:17:16.576Z,23.75
2018-07-26T02:18:16.594Z,23.74
2018-07-26T02:19:16.627Z,23.72
2018-07-26T02:20:16.649Z,23.77
2018-07-26T02:21:16.682Z,23.64
2018-07-26T02:22:16.710Z,23.71
2018-07-26T02:23:16.736Z,23.72
2018-07-26T02:24:16.766Z,23.75
2018-07-26T02:25:16.787Z,23.72
2018-07-26T02:26:16.814Z,23.81
2018-07-26T02:27:16.848Z,23.79
2018-07-26T02:28:16.875Z,23.77
2018-07-26T02:29:16.954Z,23.77
2018-07-26T02:30:16.928Z,23.74
2018-07-26T02:31:16.955Z,23.64
2018-07-26T02:32:16.981Z,23.75
2018-07-26T02:33:17.008Z,23.78
2018-07-26T02:34:17.036Z,23.78
2018-07-26T02:35:17.064Z,23.75
2018-07-26T02:36:17.084Z,23.75
2018-07-26T02:37:17.121Z,23.63
2018-07-26T02:38:17.151Z,23.74
2018-07-26T02:39:17.170Z,23.67
2018-07-26T02:40:17.194Z,23.72
2018-07-26T02:41:17.229Z,23.68
2018-07-26T02:42:17.258Z,23.59
2018-07-26T02:43:17.280Z,23.63
2018-07-26T02:44:17.315Z,23.71
2018-07-26T02:45:17.332Z,23.64
2018-07-26T02:46:17.360Z,23.62
2018-07-26T02:47:17.388Z,23.62
2018-07-26T02:48:17.420Z,23.59
2018-07-26T02:49:17.445Z,23.64
2018-07-26T02:50:17.466Z,23.69
2018-07-26T02:51:17.498Z,23.68
2018-07-26T02:52:17.531Z,23.71
2018-07-26T02:53:17.553Z,23.72
2018-07-26T02:54:17.577Z,23.68
2018-07-26T02:55:17.605Z,23.64
2018-07-26T02:56:17.633Z,23.68
2018-07-26T02:57:17.664Z,23.67
2018-07-26T02:58:17.682Z,23.68
2018-07-26T02:59:17.717Z,23.69
2018-07-26T03:00:17.740Z,23.67
2018-07-26T03:01:17.768Z,23.69
2018-07-26T03:02:17.801Z,23.64
2018-07-26T03:03:17.826Z,23.69
2018-07-26T03:04:17.852Z,23.52
2018-07-26T03:05:17.876Z,23.56
2018-07-26T03:06:17.903Z,23.54
2018-07-26T03:07:18.065Z,23.54
2018-07-26T03:08:17.956Z,23.53
2018-07-26T03:09:17.986Z,23.54
2018-07-26T03:10:18.016Z,23.56
2018-07-26T03:11:18.036Z,23.54
2018-07-26T03:12:18.064Z,23.49
2018-07-26T03:13:18.096Z,23.53
2018-07-26T03:14:18.126Z,23.50
2018-07-26T03:15:18.146Z,23.42
2018-07-26T03:16:18.174Z,23.54
2018-07-26T03:17:18.202Z,23.44
2018-07-26T03:18:18.238Z,23.42
2018-07-26T03:19:18.254Z,23.49
2018-07-26T03:20:18.284Z,23.52
2018-07-26T03:21:18.312Z,23.41
2018-07-26T03:22:18.338Z,23.56
2018-07-26T03:23:18.367Z,23.54
2018-07-26T03:24:18.394Z,23.57
2018-07-26T03:25:18.419Z,23.56
2018-07-26T03:26:18.447Z,23.54
2018-07-26T03:27:18.472Z,23.54
2018-07-26T03:28:18.497Z,23.54
2018-07-26T03:29:18.530Z,23.54
2018-07-26T03:30:18.551Z,23.52
2018-07-26T03:31:18.579Z,23.54
2018-07-26T03:32:18.609Z,23.53
2018-07-26T03:33:18.638Z,23.63
2018-07-26T03:34:18.671Z,23.56
2018-07-26T03:35:18.705Z,23.64
2018-07-26T03:36:18.713Z,23.63
2018-07-26T03:37:18.745Z,23.59
2018-07-26T03:38:18.771Z,23.62
2018-07-26T03:39:18.797Z,23.63
2018-07-26T03:40:18.824Z,23.63
2018-07-26T03:41:18.853Z,23.69
2018-07-26T03:42:18.879Z,23.59
2018-07-26T03:43:18.907Z,23.64
2018-07-26T03:44:18.933Z,23.62
2018-07-26T03:45:18.954Z,23.63
2018-07-26T03:46:18.987Z,23.74
2018-07-26T03:47:19.017Z,23.64
2018-07-26T03:48:19.040Z,23.64
2018-07-26T03:49:19.069Z,23.72
2018-07-26T03:50:19.101Z,23.69
2018-07-26T03:51:19.180Z,23.69
2018-07-26T03:52:19.155Z,23.74
2018-07-26T03:53:19.173Z,23.67
2018-07-26T03:54:19.203Z,23.59
2018-07-26T03:55:19.231Z,23.63
2018-07-26T03:56:19.257Z,23.63
2018-07-26T03:57:19.279Z,23.60
2018-07-26T03:58:19.315Z,23.67
2018-07-26T03:59:19.341Z,23.64
2018-07-26T04:00:19.359Z,23.64
2018-07-26T04:01:19.389Z,23.69
2018-07-26T04:02:19.419Z,23.59
2018-07-26T04:03:19.465Z,23.64
2018-07-26T04:04:19.471Z,23.67
2018-07-26T04:05:19.508Z,23.64
2018-07-26T04:06:19.529Z,23.69
2018-07-26T04:07:19.557Z,23.62
2018-07-26T04:08:19.587Z,23.62
2018-07-26T04:09:19.616Z,23.68
2018-07-26T04:10:19.637Z,23.68
2018-07-26T04:11:19.666Z,23.59
2018-07-26T04:12:19.689Z,23.64
2018-07-26T04:13:19.722Z,23.63
2018-07-26T04:14:19.753Z,23.60
2018-07-26T04:15:19.772Z,23.69
2018-07-26T04:16:19.797Z,23.64
2018-07-26T04:17:19.828Z,23.68
2018-07-26T04:18:19.854Z,23.68
2018-07-26T04:19:19.885Z,23.72
2018-07-26T04:20:19.909Z,23.77
2018-07-26T04:21:19.934Z,23.63
2018-07-26T04:22:19.964Z,23.71
2018-07-26T04:23:19.992Z,23.69
2018-07-26T04:24:20.020Z,23.67
2018-07-26T04:25:20.043Z,23.57
2018-07-26T04:26:20.070Z,23.63
2018-07-26T04:27:20.100Z,23.64
2018-07-26T04:28:20.129Z,23.68
2018-07-26T04:29:20.151Z,23.62
2018-07-26T04:30:20.182Z,23.67
2018-07-26T04:31:20.206Z,23.67
2018-07-26T04:32:20.233Z,23.69
2018-07-26T04:33:20.263Z,23.77
2018-07-26T04:34:20.297Z,23.74
2018-07-26T04:35:20.316Z,23.74
2018-07-26T04:36:20.344Z,23.72
2018-07-26T04:37:20.371Z,23.74
2018-07-26T04:38:20.396Z,23.79
2018-07-26T04:39:20.420Z,23.81
2018-07-26T04:40:20.450Z,23.79
2018-07-26T04:41:20.480Z,23.81
2018-07-26T04:42:20.504Z,23.89
2018-07-26T04:43:20.532Z,23.92
2018-07-26T04:44:20.558Z,23.90
2018-07-26T04:45:20.602Z,23.84
2018-07-26T04:46:20.620Z,23.84
2018-07-26T04:47:20.641Z,23.90
2018-07-26T04:48:20.671Z,23.90
2018-07-26T04:49:20.697Z,24.00
2018-07-26T04:50:20.723Z,23.93
2018-07-26T04:51:20.754Z,24.02
2018-07-26T04:52:20.779Z,23.96
2018-07-26T04:53:20.803Z,24.05
2018-07-26T04:54:20.836Z,24.09
2018-07-26T04:55:20.858Z,24.05
2018-07-26T04:56:20.887Z,24.04
2018-07-26T04:57:20.914Z,23.99
2018-07-26T04:58:20.940Z,24.05
2018-07-26T04:59:20.962Z,24.11
2018-07-26T05:00:20.996Z,24.08
2018-07-26T05:01:21.023Z,24.23
2018-07-26T05:02:21.052Z,24.14
2018-07-26T05:03:21.076Z,24.14
2018-07-26T05:04:21.106Z,24.18
2018-07-26T05:05:21.129Z,24.15
2018-07-26T05:06:21.160Z,24.24
2018-07-26T05:07:21.184Z,24.24
2018-07-26T05:08:21.214Z,24.27
2018-07-26T05:09:21.242Z,24.27
2018-07-26T05:10:21.269Z,24.26
2018-07-26T05:11:21.292Z,24.33
2018-07-26T05:12:21.322Z,24.23
2018-07-26T05:13:21.354Z,24.27
2018-07-26T05:14:21.374Z,24.39
2018-07-26T05:15:21.404Z,24.33
2018-07-26T05:16:21.429Z,24.39
2018-07-26T05:17:21.460Z,24.34
2018-07-26T05:18:21.500Z,24.42
2018-07-26T05:19:21.516Z,24.36
2018-07-26T05:20:21.550Z,24.42
2018-07-26T05:21:21.572Z,24.31
2018-07-26T05:22:21.596Z,24.34
2018-07-26T05:23:21.626Z,24.41
2018-07-26T05:24:21.652Z,24.41
2018-07-26T05:25:21.681Z,24.49
2018-07-26T05:26:21.704Z,24.49
2018-07-26T05:27:21.742Z,24.52
2018-07-26T05:28:21.760Z,24.59
2018-07-26T05:29:21.785Z,24.56
2018-07-26T05:30:21.822Z,24.53
2018-07-26T05:31:21.840Z,24.56
2018-07-26T05:32:21.874Z,24.60
2018-07-26T05:33:21.898Z,24.63
2018-07-26T05:34:21.924Z,24.68
2018-07-26T05:35:21.952Z,24.64
2018-07-26T05:36:21.980Z,24.66
2018-07-26T05:37:22.033Z,24.70
2018-07-26T05:38:22.035Z,24.68
2018-07-26T05:39:22.061Z,24.66
2018-07-26T05:40:22.088Z,24.75
2018-07-26T05:41:22.117Z,24.79
2018-07-26T05:42:22.154Z,24.82
2018-07-26T05:43:22.174Z,24.82
2018-07-26T05:44:22.202Z,24.84
2018-07-26T05:45:22.230Z,24.83
2018-07-26T05:46:22.262Z,24.83
2018-07-26T05:47:22.288Z,24.86
2018-07-26T05:48:22.308Z,24.86
2018-07-26T05:49:22.338Z,24.86
2018-07-26T05:50:22.369Z,24.87
2018-07-26T05:51:22.400Z,24.84
2018-07-26T05:52:22.420Z,24.86
2018-07-26T05:53:22.489Z,24.86
2018-07-26T05:54:22.495Z,24.86
2018-07-26T05:55:22.504Z,24.90
2018-07-26T05:56:22.534Z,24.87
2018-07-26T05:57:22.564Z,25.01
2018-07-26T05:58:22.587Z,24.99
2018-07-26T05:59:22.614Z,25.02
2018-07-26T06:00:22.636Z,24.99
2018-07-26T06:01:22.667Z,25.08
2018-07-26T06:02:22.699Z,25.01
2018-07-26T06:03:22.727Z,25.04
2018-07-26T06:04:22.750Z,25.05
2018-07-26T06:05:22.781Z,25.01
2018-07-26T06:06:22.811Z,25.16
2018-07-26T06:07:22.839Z,25.14
2018-07-26T06:08:22.860Z,25.16
2018-07-26T06:09:22.899Z,25.14
2018-07-26T06:10:22.916Z,25.19
2018-07-26T06:11:22.948Z,25.17
2018-07-26T06:12:22.979Z,25.11
2018-07-26T06:13:23.006Z,25.16
2018-07-26T06:14:23.032Z,25.14
2018-07-26T06:15:23.058Z,25.14
2018-07-26T06:16:23.084Z,25.16
2018-07-26T06:17:23.120Z,25.23
2018-07-26T06:18:23.137Z,25.22
2018-07-26T06:19:23.172Z,25.24
2018-07-26T06:20:23.195Z,25.26
2018-07-26T06:21:23.222Z,25.27
2018-07-26T06:22:23.250Z,25.27
2018-07-26T06:23:23.282Z,25.35
2018-07-26T06:24:23.312Z,25.34
2018-07-26T06:25:23.338Z,25.34
2018-07-26T06:26:23.363Z,25.41
2018-07-26T06:27:23.390Z,25.42
2018-07-26T06:28:23.426Z,25.49
2018-07-26T06:29:23.449Z,25.41
2018-07-26T06:30:23.480Z,25.53
2018-07-26T06:31:23.503Z,25.53
2018-07-26T06:32:23.532Z,25.56
2018-07-26T06:33:23.587Z,25.48
2018-07-26T06:34:23.590Z,25.51
2018-07-26T06:35:23.616Z,25.56
2018-07-26T06:36:23.642Z,25.56
2018-07-26T06:37:23.670Z,25.63
2018-07-26T06:38:23.698Z,25.60
2018-07-26T06:39:23.759Z,25.63
2018-07-26T06:40:23.757Z,25.61
2018-07-26T06:41:23.783Z,25.63
2018-07-26T06:42:23.809Z,25.64
2018-07-26T06:43:23.840Z,25.75
2018-07-26T06:44:23.867Z,25.69
2018-07-26T06:45:23.895Z,25.75
2018-07-26T06:46:23.924Z,25.76
2018-07-26T06:47:23.953Z,25.82
2018-07-26T06:48:23.976Z,25.81
2018-07-26T06:49:24.006Z,25.82
2018-07-26T06:50:24.040Z,25.83
2018-07-26T06:51:24.066Z,25.89
2018-07-26T06:52:24.092Z,25.96
2018-07-26T06:53:24.116Z,25.97
2018-07-26T06:54:24.146Z,26.04
2018-07-26T06:55:24.171Z,26.11
2018-07-26T06:56:24.207Z,26.08
2018-07-26T06:57:24.233Z,26.20
2018-07-26T06:58:24.262Z,26.17
2018-07-26T06:59:24.288Z,26.28
2018-07-26T07:00:24.317Z,26.29
2018-07-26T07:01:24.344Z,26.20
2018-07-26T07:02:24.371Z,26.23
2018-07-26T07:03:24.401Z,26.34
2018-07-26T07:04:24.431Z,26.32
2018-07-26T07:05:24.463Z,26.36
2018-07-26T07:06:24.491Z,26.35
2018-07-26T07:07:24.527Z,26.39
2018-07-26T07:08:24.542Z,26.35
2018-07-26T07:09:24.571Z,26.47
2018-07-26T07:10:24.602Z,26.42
2018-07-26T07:11:24.627Z,26.49
2018-07-26T07:12:24.658Z,26.50
2018-07-26T07:13:24.685Z,26.49
2018-07-26T07:14:24.711Z,26.49
2018-07-26T07:15:24.740Z,26.49
2018-07-26T07:16:24.767Z,26.56
2018-07-26T07:17:24.796Z,26.64
2018-07-26T07:18:24.823Z,26.56
2018-07-26T07:19:24.860Z,26.57
2018-07-26T07:20:24.942Z,26.65
2018-07-26T07:21:24.916Z,26.72
2018-07-26T07:22:24.941Z,26.76
2018-07-26T07:23:24.969Z,26.83
2018-07-26T07:24:24.997Z,26.81
2018-07-26T07:25:25.025Z,26.73
2018-07-26T07:26:25.057Z,26.91
2018-07-26T07:27:25.080Z,26.79
2018-07-26T07:28:25.110Z,26.81
2018-07-26T07:29:25.136Z,26.79
2018-07-26T07:30:25.167Z,26.86
2018-07-26T07:31:25.195Z,26.84
2018-07-26T07:32:25.224Z,26.96
2018-07-26T07:33:25.249Z,26.97
2018-07-26T07:34:25.279Z,27.05
2018-07-26T07:35:25.363Z,27.08
2018-07-26T07:36:25.341Z,27.05
2018-07-26T07:37:25.364Z,27.03
2018-07-26T07:38:25.399Z,27.05
2018-07-26T07:39:25.425Z,27.05
2018-07-26T07:40:25.452Z,27.11
2018-07-26T07:41:25.489Z,27.16
2018-07-26T07:42:25.510Z,27.16
2018-07-26T07:43:25.536Z,27.23
2018-07-26T07:44:25.570Z,27.23
2018-07-26T07:45:25.595Z,27.21
2018-07-26T07:46:25.626Z,27.33
2018-07-26T07:47:25.800Z,27.28
2018-07-26T07:48:25.688Z,27.35
2018-07-26T07:49:25.710Z,27.40
2018-07-26T07:50:25.745Z,27.34
2018-07-26T07:51:25.767Z,27.45
2018-07-26T07:52:25.792Z,27.39
2018-07-26T07:53:25.827Z,27.52
2018-07-26T07:54:25.855Z,27.50
2018-07-26T07:55:25.880Z,27.52
2018-07-26T07:56:25.914Z,27.50
2018-07-26T07:57:25.946Z,27.58
2018-07-26T07:58:25.962Z,27.52
2018-07-26T07:59:26.050Z,27.58
2018-07-26T08:00:26.015Z,27.61
2018-07-26T08:01:26.061Z,27.58
2018-07-26T08:02:26.083Z,27.61
2018-07-26T08:03:26.115Z,27.66
2018-07-26T08:04:26.142Z,27.63
2018-07-26T08:05:26.245Z,27.72
2018-07-26T08:06:26.196Z,27.74
2018-07-26T08:07:26.226Z,27.86
2018-07-26T08:08:26.253Z,27.90
2018-07-26T08:09:26.283Z,27.91
2018-07-26T08:10:26.305Z,27.99
2018-07-26T08:11:26.338Z,28.01
2018-07-26T08:12:26.373Z,28.03
2018-07-26T08:13:26.400Z,28.09
2018-07-26T08:14:26.429Z,28.21
2018-07-26T08:15:26.454Z,28.30
2018-07-26T08:16:26.485Z,28.28
2018-07-26T08:17:26.514Z,28.28
2018-07-26T08:18:26.544Z,28.40
2018-07-26T08:19:26.568Z,28.36
2018-07-26T08:20:26.596Z,28.33
2018-07-26T08:21:26.671Z,28.42
2018-07-26T08:22:26.662Z,28.36
2018-07-26T08:23:26.701Z,28.32
2018-07-26T08:24:26.710Z,28.36
2018-07-26T08:25:26.746Z,28.32
2018-07-26T08:26:26.777Z,28.30
2018-07-26T08:27:26.797Z,28.33
2018-07-26T08:28:26.833Z,28.27
2018-07-26T08:29:26.887Z,28.33
2018-07-26T08:30:26.885Z,28.35
2018-07-26T08:31:26.917Z,28.38
2018-07-26T08:32:26.944Z,28.40
2018-07-26T08:33:26.971Z,28.39
2018-07-26T08:34:27.007Z,28.36
2018-07-26T08:35:27.031Z,28.38
2018-07-26T08:36:27.098Z,28.38
2018-07-26T08:37:27.095Z,28.40
2018-07-26T08:38:27.118Z,28.42
2018-07-26T08:39:27.155Z,28.51
2018-07-26T08:40:27.175Z,28.54
2018-07-26T08:41:27.203Z,28.64
2018-07-26T08:42:27.231Z,28.80
2018-07-26T08:43:27.270Z,28.87
2018-07-26T08:44:27.295Z,28.87
2018-07-26T08:45:27.326Z,28.94
2018-07-26T08:46:27.351Z,28.92
2018-07-26T08:47:27.385Z,28.97
2018-07-26T08:48:27.411Z,28.97
2018-07-26T08:49:27.442Z,28.92
2018-07-26T08:50:27.467Z,28.91
2018-07-26T08:51:27.499Z,28.88
2018-07-26T08:52:27.530Z,28.85
2018-07-26T08:53:27.560Z,28.85
2018-07-26T08:54:27.591Z,28.74
2018-07-26T08:55:27.617Z,28.87
2018-07-26T08:56:27.651Z,28.94
2018-07-26T08:57:27.673Z,28.91
2018-07-26T08:58:27.701Z,28.83
2018-07-26T08:59:27.727Z,28.87
2018-07-26T09:00:27.763Z,28.85
2018-07-26T09:01:27.787Z,28.89
2018-07-26T09:02:27.826Z,28.92
2018-07-26T09:03:27.853Z,28.97
2018-07-26T09:04:27.925Z,28.97
2018-07-26T09:05:27.907Z,29.12
2018-07-26T09:06:27.934Z,29.26
2018-07-26T09:07:27.961Z,29.23
2018-07-26T09:08:28.002Z,29.35
2018-07-26T09:09:28.021Z,29.33
2018-07-26T09:10:28.052Z,29.42
2018-07-26T09:11:28.141Z,29.45
2018-07-26T09:12:28.110Z,29.44
2018-07-26T09:13:28.209Z,29.47
2018-07-26T09:14:28.171Z,29.41
2018-07-26T09:15:28.200Z,29.41
2018-07-26T09:16:28.225Z,29.36
2018-07-26T09:17:28.258Z,29.41
2018-07-26T09:18:28.285Z,29.36
2018-07-26T09:19:28.321Z,29.44
2018-07-26T09:20:28.345Z,29.41
2018-07-26T09:21:28.376Z,29.47
2018-07-26T09:22:28.407Z,29.35
2018-07-26T09:23:28.433Z,29.37
2018-07-26T09:24:28.475Z,29.41
2018-07-26T09:25:28.493Z,29.47
2018-07-26T09:26:28.520Z,29.55
2018-07-26T09:27:28.550Z,29.57
2018-07-26T09:28:28.584Z,29.64
2018-07-26T09:29:28.612Z,29.62
2018-07-26T09:30:28.640Z,29.82
2018-07-26T09:31:28.669Z,29.91
2018-07-26T09:32:28.695Z,29.91
2018-07-26T09:33:28.727Z,30.01
2018-07-26T09:34:28.752Z,29.89
2018-07-26T09:35:28.800Z,30.04
2018-07-26T09:36:28.810Z,30.01
2018-07-26T09:37:28.844Z,30.18
2018-07-26T09:38:28.876Z,30.18
2018-07-26T09:39:28.913Z,30.26
2018-07-26T09:40:28.931Z,30.30
2018-07-26T09:41:28.965Z,30.38
2018-07-26T09:42:28.992Z,30.36
2018-07-26T09:43:29.024Z,30.45
2018-07-26T09:44:29.051Z,30.54
2018-07-26T09:45:29.088Z,30.48
2018-07-26T09:46:29.110Z,30.46
2018-07-26T09:47:29.232Z,30.51
2018-07-26T09:48:29.169Z,30.54
2018-07-26T09:49:29.201Z,30.56
2018-07-26T09:50:29.235Z,30.57
2018-07-26T09:51:29.258Z,30.64
2018-07-26T09:52:29.287Z,30.53
2018-07-26T09:53:29.319Z,30.51
2018-07-26T09:54:29.348Z,30.54
2018-07-26T09:55:29.381Z,30.59
2018-07-26T09:56:29.411Z,30.54
2018-07-26T09:57:29.441Z,30.54
2018-07-26T09:58:29.469Z,30.60
2018-07-26T09:59:29.493Z,30.66
2018-07-26T10:00:29.543Z,30.68
2018-07-26T10:01:29.558Z,30.73
2018-07-26T10:02:29.591Z,30.75
2018-07-26T10:03:29.621Z,30.81
2018-07-26T10:04:29.649Z,30.88
2018-07-26T10:05:29.673Z,30.83
2018-07-26T10:06:29.705Z,30.91
2018-07-26T10:07:29.741Z,30.98
2018-07-26T10:08:29.771Z,30.97
2018-07-26T10:09:29.799Z,31.01
2018-07-26T10:10:29.831Z,31.04
2018-07-26T10:11:29.853Z,31.07
2018-07-26T10:12:29.896Z,31.01
2018-07-26T10:13:29.920Z,31.16
2018-07-26T10:14:29.951Z,31.15
2018-07-26T10:15:29.980Z,31.15
2018-07-26T10:16:30.007Z,31.22
2018-07-26T10:17:30.035Z,31.18
2018-07-26T10:18:30.075Z,31.18
2018-07-26T10:19:30.103Z,31.25
2018-07-26T10:20:30.127Z,31.27
2018-07-26T10:21:30.162Z,31.32
2018-07-26T10:22:30.187Z,31.34
2018-07-26T10:23:30.223Z,31.40
2018-07-26T10:24:30.256Z,31.35
2018-07-26T10:25:30.280Z,31.42
2018-07-26T10:26:30.311Z,31.50
2018-07-26T10:27:30.336Z,31.54
2018-07-26T10:28:30.369Z,31.54
2018-07-26T10:29:30.399Z,31.56
2018-07-26T10:30:30.432Z,31.57
2018-07-26T10:31:30.450Z,31.54
2018-07-26T10:32:30.489Z,31.57
2018-07-26T10:33:30.566Z,31.54
2018-07-26T10:34:30.559Z,31.53
2018-07-26T10:35:30.579Z,31.49
2018-07-26T10:36:30.611Z,31.41
2018-07-26T10:37:30.645Z,31.41
2018-07-26T10:38:30.669Z,31.37
2018-07-26T10:39:30.701Z,31.41
2018-07-26T10:40:30.734Z,31.40
2018-07-26T10:41:30.764Z,31.41
2018-07-26T10:42:30.789Z,31.50
2018-07-26T10:43:30.819Z,31.57
2018-07-26T10:44:30.895Z,31.64
2018-07-26T10:45:30.883Z,31.71
2018-07-26T10:46:30.916Z,31.78
2018-07-26T10:47:30.944Z,31.88
2018-07-26T10:48:30.975Z,31.91
2018-07-26T10:49:31.000Z,31.87
2018-07-26T10:50:31.037Z,31.85
2018-07-26T10:51:31.075Z,31.95
2018-07-26T10:52:31.098Z,32.13
2018-07-26T10:53:31.128Z,32.12
2018-07-26T10:54:31.157Z,32.13
2018-07-26T10:55:31.185Z,32.22
2018-07-26T10:56:31.220Z,32.29
2018-07-26T10:57:31.248Z,32.34
2018-07-26T10:58:31.272Z,32.39
2018-07-26T10:59:31.305Z,32.39
2018-07-26T11:00:31.345Z,32.50
2018-07-26T11:01:31.367Z,32.63
2018-07-26T11:02:31.400Z,32.73
2018-07-26T11:03:31.427Z,32.81
2018-07-26T11:04:31.464Z,33.00
2018-07-26T11:05:31.496Z,33.18
2018-07-26T11:06:31.528Z,33.40
2018-07-26T11:07:31.566Z,33.52
2018-07-26T11:08:31.598Z,33.79
2018-07-26T11:09:31.630Z,33.96
2018-07-26T11:10:31.667Z,34.36
2018-07-26T11:11:31.695Z,34.86
2018-07-26T11:12:31.733Z,35.56
2018-07-26T11:13:31.768Z,36.23
2018-07-26T11:14:31.811Z,37.04
2018-07-26T11:15:31.835Z,37.91
2018-07-26T11:16:31.926Z,38.90
2018-07-26T11:17:31.901Z,39.57
2018-07-26T11:18:31.978Z,40.10
2018-07-26T11:19:31.975Z,40.56
2018-07-26T11:20:32.018Z,41.00
2018-07-26T11:21:32.052Z,41.57
2018-07-26T11:22:33.303Z,42.19
2018-07-26T11:23:32.125Z,42.38
2018-07-26T11:24:32.172Z,43.08
2018-07-26T11:25:32.209Z,43.49
2018-07-26T11:26:32.241Z,43.77
2018-07-26T11:27:32.282Z,43.13
2018-07-26T11:28:32.332Z,42.70
2018-07-26T11:29:32.381Z,42.11
2018-07-26T11:30:32.402Z,42.94
2018-07-26T11:32:32.472Z,43.82
2018-07-26T11:33:32.512Z,44.02
2018-07-26T11:34:32.552Z,44.12
2018-07-26T11:35:32.593Z,44.18
2018-07-26T11:36:32.633Z,44.13
2018-07-26T11:37:32.673Z,43.87
2018-07-26T11:38:35.708Z,44.05
2018-07-26T11:39:32.758Z,43.87
2018-07-26T11:40:32.792Z,44.31
2018-07-26T11:41:32.859Z,44.72
2018-07-26T11:42:32.878Z,44.66
2018-07-26T11:43:32.925Z,44.64
2018-07-26T11:44:32.951Z,44.37
2018-07-26T11:45:32.998Z,43.26
2018-07-26T11:46:33.037Z,41.88
2018-07-26T11:47:33.078Z,40.64
2018-07-26T11:48:33.119Z,39.62
2018-07-26T11:49:33.163Z,38.77
2018-07-26T11:50:33.196Z,37.97
2018-07-26T11:51:33.240Z,37.45
2018-07-26T11:52:33.271Z,37.05
2018-07-26T11:53:33.515Z,36.74
2018-07-26T11:54:33.345Z,36.43
2018-07-26T11:55:33.387Z,36.22
2018-07-26T11:56:33.426Z,36.49
2018-07-26T11:57:33.462Z,37.01
2018-07-26T11:58:33.500Z,36.60
2018-07-26T11:59:33.535Z,36.31
2018-07-26T12:00:33.575Z,36.08
2018-07-26T12:01:33.652Z,36.02
2018-07-26T12:02:33.721Z,36.77
2018-07-26T12:03:33.685Z,38.50
2018-07-26T12:04:33.725Z,40.07
2018-07-26T12:05:33.773Z,41.10
2018-07-26T12:06:33.790Z,40.75
2018-07-26T12:07:33.836Z,40.19
2018-07-26T12:08:33.877Z,40.44
2018-07-26T12:09:33.903Z,41.65
2018-07-26T12:10:33.946Z,42.76
2018-07-26T12:11:33.978Z,43.71
2018-07-26T12:12:34.016Z,44.56
2018-07-26T12:13:34.061Z,45.11
2018-07-26T12:14:34.090Z,45.45
2018-07-26T12:15:34.131Z,45.64
2018-07-26T12:16:34.166Z,44.32
2018-07-26T12:17:34.223Z,44.39
2018-07-26T12:18:34.247Z,43.38
2018-07-26T12:19:34.285Z,42.05
2018-07-26T12:20:34.318Z,41.29
2018-07-26T12:21:34.359Z,40.67
2018-07-26T12:22:34.397Z,40.76
2018-07-26T12:23:34.436Z,41.83
2018-07-26T12:24:34.473Z,43.01
2018-07-26T12:25:34.511Z,44.03
2018-07-26T12:26:34.552Z,44.73
2018-07-26T12:27:34.590Z,45.35
2018-07-26T12:28:34.630Z,45.57
2018-07-26T12:29:34.680Z,45.16
2018-07-26T12:30:34.707Z,44.78
2018-07-26T12:31:34.744Z,45.54
2018-07-26T12:32:34.789Z,46.17
2018-07-26T12:33:34.835Z,46.79
2018-07-26T12:34:34.871Z,47.43
2018-07-26T12:35:34.904Z,47.72
2018-07-26T12:36:34.948Z,47.95
2018-07-26T12:37:35.066Z,48.31
2018-07-26T12:38:35.030Z,48.26
2018-07-26T12:39:35.074Z,48.32
2018-07-26T12:40:35.114Z,48.36
2018-07-26T12:41:35.154Z,48.23
2018-07-26T12:42:35.202Z,47.25
2018-07-26T12:43:35.270Z,46.87
2018-07-26T12:44:35.284Z,46.94
2018-07-26T12:45:35.328Z,46.93
2018-07-26T12:46:35.368Z,47.24
2018-07-26T12:47:35.452Z,47.29
2018-07-26T12:48:35.450Z,46.65
2018-07-26T12:49:35.496Z,46.14
2018-07-26T12:50:35.542Z,45.87
2018-07-26T12:51:35.580Z,46.11
2018-07-26T12:52:35.626Z,46.34
2018-07-26T12:53:35.678Z,46.75